Terminal Aerodrome Forecast
Issued by NWS Corpus Christi, TX

Home | Current Version | Previous Version | Text Only | Print | Product List | Glossary On
Versions: 1 2 3 4 5 6 7 8 9 10 11 12 13 14 15 16 17 18 19 20 21
000
FTUS44 KCRP 282201 AAA
TAFVCT
TAF AMD
KVCT 282201Z 2822/2918 12014KT 5SM HZ BKN020 BKN030
     FM290300 13013KT 4SM BR SCT008 OVC015
      TEMPO 2909/2913 1SM BR BKN008
     FM291600 15017KT 6SM HZ SCT025 BKN035=

USA.gov is the U.S. government's official web portal to all federal, state and local government web resources and services.